sensor_id;sensor_type;location;lat;lon;timestamp;pressure;altitude;pressure_sealevel;temperature;humidity
21395;BME280;10858;42.714;23.180;2023-03-23T00:00:13;94386.34;;;4.28;89.00
21395;BME280;10858;42.714;23.180;2023-03-23T00:02:40;94383.03;;;4.39;88.80
21395;BME280;10858;42.714;23.180;2023-03-23T00:05:06;94383.66;;;4.15;90.15
21395;BME280;10858;42.714;23.180;2023-03-23T00:07:34;94377.66;;;4.13;91.32
21395;BME280;10858;42.714;23.180;2023-03-23T00:10:01;94374.75;;;4.18;91.66
21395;BME280;10858;42.714;23.180;2023-03-23T00:12:31;94373.84;;;4.31;90.79
21395;BME280;10858;42.714;23.180;2023-03-23T00:15:06;94372.72;;;4.36;89.79
21395;BME280;10858;42.714;23.180;2023-03-23T00:17:33;94375.44;;;4.34;90.01
21395;BME280;10858;42.714;23.180;2023-03-23T00:20:00;94380.19;;;4.42;89.90
21395;BME280;10858;42.714;23.180;2023-03-23T00:22:28;94376.72;;;4.41;89.46
21395;BME280;10858;42.714;23.180;2023-03-23T00:24:55;94377.16;;;4.48;89.49
21395;BME280;10858;42.714;23.180;2023-03-23T00:27:22;94375.91;;;4.53;88.87
21395;BME280;10858;42.714;23.180;2023-03-23T00:29:49;94376.25;;;4.49;88.43
21395;BME280;10858;42.714;23.180;2023-03-23T00:32:19;94381.56;;;4.47;87.59
21395;BME280;10858;42.714;23.180;2023-03-23T00:34:47;94386.53;;;4.25;88.36
21395;BME280;10858;42.714;23.180;2023-03-23T00:37:15;94380.44;;;4.24;88.65
21395;BME280;10858;42.714;23.180;2023-03-23T00:39:45;94387.81;;;4.32;88.53
21395;BME280;10858;42.714;23.180;2023-03-23T00:42:16;94381.28;;;4.25;90.93
21395;BME280;10858;42.714;23.180;2023-03-23T00:44:43;94380.34;;;4.53;89.88
21395;BME280;10858;42.714;23.180;2023-03-23T00:47:12;94377.28;;;4.73;89.38
21395;BME280;10858;42.714;23.180;2023-03-23T00:49:38;94378.75;;;4.89;89.21
21395;BME280;10858;42.714;23.180;2023-03-23T00:52:05;94378.91;;;5.00;89.42
21395;BME280;10858;42.714;23.180;2023-03-23T00:54:32;94377.13;;;5.13;89.12
21395;BME280;10858;42.714;23.180;2023-03-23T00:57:00;94382.78;;;5.07;88.70
21395;BME280;10858;42.714;23.180;2023-03-23T00:59:26;94377.94;;;5.01;89.13
21395;BME280;10858;42.714;23.180;2023-03-23T01:01:52;94379.22;;;4.96;89.08
21395;BME280;10858;42.714;23.180;2023-03-23T01:04:19;94380.47;;;4.90;89.32
21395;BME280;10858;42.714;23.180;2023-03-23T01:06:49;94385.94;;;5.00;88.65
21395;BME280;10858;42.714;23.180;2023-03-23T01:09:17;94391.59;;;4.94;88.29
21395;BME280;10858;42.714;23.180;2023-03-23T01:11:46;94386.66;;;4.89;88.63
21395;BME280;10858;42.714;23.180;2023-03-23T01:14:14;94391.19;;;5.00;87.95
21395;BME280;10858;42.714;23.180;2023-03-23T01:16:41;94387.00;;;5.10;86.41
21395;BME280;10858;42.714;23.180;2023-03-23T01:19:07;94384.59;;;4.68;86.76
21395;BME280;10858;42.714;23.180;2023-03-23T01:21:34;94392.19;;;4.72;87.00
21395;BME280;10858;42.714;23.180;2023-03-23T01:24:00;94398.41;;;4.84;85.32
21395;BME280;10858;42.714;23.180;2023-03-23T01:26:28;94400.94;;;4.85;84.70
21395;BME280;10858;42.714;23.180;2023-03-23T01:28:55;94391.84;;;5.03;84.11
21395;BME280;10858;42.714;23.180;2023-03-23T01:31:23;94403.41;;;5.13;83.42
21395;BME280;10858;42.714;23.180;2023-03-23T01:33:50;94398.31;;;4.85;83.36
21395;BME280;10858;42.714;23.180;2023-03-23T01:36:20;94395.75;;;4.71;83.77
21395;BME280;10858;42.714;23.180;2023-03-23T01:38:48;94401.78;;;4.59;84.20
21395;BME280;10858;42.714;23.180;2023-03-23T01:41:15;94398.81;;;4.51;84.28
21395;BME280;10858;42.714;23.180;2023-03-23T01:46:44;94401.31;;;4.40;86.46
21395;BME280;10858;42.714;23.180;2023-03-23T01:49:23;94394.72;;;4.20;87.55
21395;BME280;10858;42.714;23.180;2023-03-23T01:52:05;94390.75;;;4.27;89.03
21395;BME280;10858;42.714;23.180;2023-03-23T01:54:33;94388.59;;;4.20;89.87
21395;BME280;10858;42.714;23.180;2023-03-23T01:57:04;94388.69;;;4.32;89.75
21395;BME280;10858;42.714;23.180;2023-03-23T01:59:33;94381.53;;;4.35;89.25
21395;BME280;10858;42.714;23.180;2023-03-23T02:02:01;94385.72;;;4.37;89.30
21395;BME280;10858;42.714;23.180;2023-03-23T02:04:28;94377.56;;;4.42;88.30
21395;BME280;10858;42.714;23.180;2023-03-23T02:06:56;94370.19;;;4.34;87.59
21395;BME280;10858;42.714;23.180;2023-03-23T02:09:25;94373.88;;;4.17;88.88
21395;BME280;10858;42.714;23.180;2023-03-23T02:11:54;94385.25;;;4.18;89.00
21395;BME280;10858;42.714;23.180;2023-03-23T02:14:21;94380.06;;;4.30;88.32
21395;BME280;10858;42.714;23.180;2023-03-23T02:22:43;94390.69;;;4.01;87.98
21395;BME280;10858;42.714;23.180;2023-03-23T02:41:21;94396.13;;;4.12;88.38
21395;BME280;10858;42.714;23.180;2023-03-23T02:43:49;94389.56;;;4.05;89.70
21395;BME280;10858;42.714;23.180;2023-03-23T02:46:16;94391.13;;;4.21;89.02
21395;BME280;10858;42.714;23.180;2023-03-23T02:48:45;94387.66;;;4.21;88.42
21395;BME280;10858;42.714;23.180;2023-03-23T02:51:12;94391.13;;;4.21;87.20
21395;BME280;10858;42.714;23.180;2023-03-23T02:53:41;94390.69;;;4.01;86.96
21395;BME280;10858;42.714;23.180;2023-03-23T02:56:10;94395.03;;;4.02;86.71
21395;BME280;10858;42.714;23.180;2023-03-23T02:58:38;94401.22;;;3.87;87.04
21395;BME280;10858;42.714;23.180;2023-03-23T03:03:43;94398.81;;;3.70;88.06
21395;BME280;10858;42.714;23.180;2023-03-23T03:08:47;94400.94;;;3.77;87.34
21395;BME280;10858;42.714;23.180;2023-03-23T03:11:16;94405.91;;;3.82;86.88
21395;BME280;10858;42.714;23.180;2023-03-23T03:13:55;94408.75;;;3.79;86.70
21395;BME280;10858;42.714;23.180;2023-03-23T03:16:31;94406.19;;;3.77;86.93
21395;BME280;10858;42.714;23.180;2023-03-23T03:19:03;94403.13;;;3.57;88.45
21395;BME280;10858;42.714;23.180;2023-03-23T03:21:33;94412.75;;;3.70;88.91
21395;BME280;10858;42.714;23.180;2023-03-23T03:24:01;94416.41;;;3.82;87.20
21395;BME280;10858;42.714;23.180;2023-03-23T03:26:31;94412.94;;;3.67;87.22
21395;BME280;10858;42.714;23.180;2023-03-23T03:29:01;94413.13;;;3.64;88.86
21395;BME280;10858;42.714;23.180;2023-03-23T03:31:34;94422.69;;;3.79;87.49
21395;BME280;10858;42.714;23.180;2023-03-23T03:34:02;94418.56;;;3.89;85.91
21395;BME280;10858;42.714;23.180;2023-03-23T03:36:33;94419.13;;;3.66;87.77
21395;BME280;10858;42.714;23.180;2023-03-23T03:39:09;94428.19;;;4.03;86.41
21395;BME280;10858;42.714;23.180;2023-03-23T03:41:37;94432.75;;;4.27;85.67
21395;BME280;10858;42.714;23.180;2023-03-23T03:44:04;94431.91;;;4.27;84.92
21395;BME280;10858;42.714;23.180;2023-03-23T03:46:32;94423.13;;;4.00;85.36
21395;BME280;10858;42.714;23.180;2023-03-23T03:48:59;94417.41;;;3.93;85.75
21395;BME280;10858;42.714;23.180;2023-03-23T03:51:27;94421.25;;;4.02;84.48
21395;BME280;10858;42.714;23.180;2023-03-23T03:53:54;94426.50;;;4.02;84.48
21395;BME280;10858;42.714;23.180;2023-03-23T03:56:21;94425.66;;;4.01;84.76
21395;BME280;10858;42.714;23.180;2023-03-23T03:58:49;94430.16;;;3.85;84.83
21395;BME280;10858;42.714;23.180;2023-03-23T04:01:17;94431.59;;;3.63;85.37
21395;BME280;10858;42.714;23.180;2023-03-23T04:03:44;94426.16;;;3.80;85.57
21395;BME280;10858;42.714;23.180;2023-03-23T04:06:11;94426.44;;;3.75;84.81
21395;BME280;10858;42.714;23.180;2023-03-23T04:08:40;94420.34;;;3.61;85.24
21395;BME280;10858;42.714;23.180;2023-03-23T04:11:11;94422.03;;;3.47;85.70
21395;BME280;10858;42.714;23.180;2023-03-23T04:13:38;94431.47;;;3.36;86.49
21395;BME280;10858;42.714;23.180;2023-03-23T04:16:05;94423.88;;;3.31;86.40
21395;BME280;10858;42.714;23.180;2023-03-23T04:18:34;94421.72;;;3.24;86.96
21395;BME280;10858;42.714;23.180;2023-03-23T04:21:02;94425.28;;;3.37;87.56
21395;BME280;10858;42.714;23.180;2023-03-23T04:23:29;94424.63;;;3.33;88.59
21395;BME280;10858;42.714;23.180;2023-03-23T04:25:59;94425.22;;;3.38;89.34
21395;BME280;10858;42.714;23.180;2023-03-23T04:28:26;94430.84;;;3.47;89.21
21395;BME280;10858;42.714;23.180;2023-03-23T04:30:54;94426.16;;;3.52;88.39
21395;BME280;10858;42.714;23.180;2023-03-23T04:33:22;94436.09;;;3.47;88.90
21395;BME280;10858;42.714;23.180;2023-03-23T04:35:55;94428.22;;;3.61;88.27
21395;BME280;10858;42.714;23.180;2023-03-23T04:38:23;94428.41;;;3.58;88.30
21395;BME280;10858;42.714;23.180;2023-03-23T04:40:51;94425.50;;;3.62;88.45
21395;BME280;10858;42.714;23.180;2023-03-23T04:43:22;94428.97;;;3.63;88.27
21395;BME280;10858;42.714;23.180;2023-03-23T04:45:56;94436.75;;;3.64;88.02
21395;BME280;10858;42.714;23.180;2023-03-23T04:48:30;94437.59;;;3.79;87.46
21395;BME280;10858;42.714;23.180;2023-03-23T04:51:00;94437.41;;;3.68;87.46
21395;BME280;10858;42.714;23.180;2023-03-23T04:53:29;94442.75;;;3.66;88.69
21395;BME280;10858;42.714;23.180;2023-03-23T04:55:55;94443.59;;;3.81;87.40
21395;BME280;10858;42.714;23.180;2023-03-23T04:58:22;94444.88;;;3.88;87.24
21395;BME280;10858;42.714;23.180;2023-03-23T05:00:50;94445.28;;;3.82;86.67
21395;BME280;10858;42.714;23.180;2023-03-23T05:03:20;94449.75;;;3.66;87.53
21395;BME280;10858;42.714;23.180;2023-03-23T05:05:47;94448.53;;;3.57;88.53
21395;BME280;10858;42.714;23.180;2023-03-23T05:08:22;94448.09;;;3.79;89.24
21395;BME280;10858;42.714;23.180;2023-03-23T05:10:57;94455.72;;;4.24;88.97
21395;BME280;10858;42.714;23.180;2023-03-23T05:13:24;94454.00;;;4.37;88.22
21395;BME280;10858;42.714;23.180;2023-03-23T05:15:50;94453.16;;;4.77;88.32
21395;BME280;10858;42.714;23.180;2023-03-23T05:18:17;94456.66;;;5.30;87.74
21395;BME280;10858;42.714;23.180;2023-03-23T05:20:43;94462.81;;;5.43;86.46
21395;BME280;10858;42.714;23.180;2023-03-23T05:23:12;94463.81;;;5.28;85.96
21395;BME280;10858;42.714;23.180;2023-03-23T05:25:40;94463.66;;;5.56;85.24
21395;BME280;10858;42.714;23.180;2023-03-23T05:28:10;94456.09;;;5.64;85.89
21395;BME280;10858;42.714;23.180;2023-03-23T05:30:38;94457.16;;;6.24;86.82
21395;BME280;10858;42.714;23.180;2023-03-23T05:33:05;94464.72;;;8.05;88.11
21395;BME280;10858;42.714;23.180;2023-03-23T05:35:32;94455.66;;;9.39;84.54
21395;BME280;10858;42.714;23.180;2023-03-23T05:37:58;94457.28;;;9.51;82.58
21395;BME280;10858;42.714;23.180;2023-03-23T05:40:26;94459.72;;;9.95;82.04
21395;BME280;10858;42.714;23.180;2023-03-23T05:42:54;94464.34;;;10.14;80.91
21395;BME280;10858;42.714;23.180;2023-03-23T05:45:21;94467.59;;;10.06;76.97
21395;BME280;10858;42.714;23.180;2023-03-23T05:47:49;94471.00;;;10.69;73.73
21395;BME280;10858;42.714;23.180;2023-03-23T05:50:16;94476.53;;;12.03;73.64
21395;BME280;10858;42.714;23.180;2023-03-23T05:52:42;94481.06;;;13.04;73.30
21395;BME280;10858;42.714;23.180;2023-03-23T05:55:09;94479.09;;;14.39;73.37
21395;BME280;10858;42.714;23.180;2023-03-23T05:57:36;94483.13;;;14.94;66.97
21395;BME280;10858;42.714;23.180;2023-03-23T06:00:03;94483.44;;;14.40;70.87
21395;BME280;10858;42.714;23.180;2023-03-23T06:02:49;94486.59;;;14.61;63.75
21395;BME280;10858;42.714;23.180;2023-03-23T06:05:16;94487.47;;;14.70;70.15
21395;BME280;10858;42.714;23.180;2023-03-23T06:07:43;94477.88;;;14.33;64.07
21395;BME280;10858;42.714;23.180;2023-03-23T06:10:10;94485.44;;;13.23;67.55
21395;BME280;10858;42.714;23.180;2023-03-23T06:12:38;94482.69;;;14.30;66.14
21395;BME280;10858;42.714;23.180;2023-03-23T06:15:06;94484.31;;;15.91;70.85
21395;BME280;10858;42.714;23.180;2023-03-23T06:17:34;94483.56;;;16.63;67.39
21395;BME280;10858;42.714;23.180;2023-03-23T06:20:05;94477.88;;;17.68;64.06
21395;BME280;10858;42.714;23.180;2023-03-23T06:22:37;94476.94;;;17.92;63.60
21395;BME280;10858;42.714;23.180;2023-03-23T06:25:07;94473.19;;;18.23;57.51
21395;BME280;10858;42.714;23.180;2023-03-23T06:27:34;94479.00;;;18.72;56.70
21395;BME280;10858;42.714;23.180;2023-03-23T06:30:02;94473.34;;;19.48;56.74
21395;BME280;10858;42.714;23.180;2023-03-23T06:32:30;94477.97;;;19.69;52.75
21395;BME280;10858;42.714;23.180;2023-03-23T06:34:57;94474.75;;;19.44;55.64
21395;BME280;10858;42.714;23.180;2023-03-23T06:37:23;94478.50;;;19.79;58.63
21395;BME280;10858;42.714;23.180;2023-03-23T06:39:51;94479.44;;;21.06;55.70
21395;BME280;10858;42.714;23.180;2023-03-23T06:42:17;94481.53;;;20.41;53.05
21395;BME280;10858;42.714;23.180;2023-03-23T06:44:44;94482.34;;;19.70;56.22
21395;BME280;10858;42.714;23.180;2023-03-23T06:47:11;94488.44;;;20.71;55.71
21395;BME280;10858;42.714;23.180;2023-03-23T06:49:37;94495.84;;;21.39;49.62
21395;BME280;10858;42.714;23.180;2023-03-23T06:52:03;94487.91;;;19.68;49.31
21395;BME280;10858;42.714;23.180;2023-03-23T06:54:30;94487.97;;;18.87;55.25
21395;BME280;10858;42.714;23.180;2023-03-23T06:56:56;94492.53;;;18.64;55.84
21395;BME280;10858;42.714;23.180;2023-03-23T06:59:22;94493.75;;;19.13;54.05
21395;BME280;10858;42.714;23.180;2023-03-23T07:01:49;94495.31;;;19.95;55.22
21395;BME280;10858;42.714;23.180;2023-03-23T07:04:15;94494.38;;;20.60;50.09
21395;BME280;10858;42.714;23.180;2023-03-23T07:06:42;94500.38;;;20.83;48.17
21395;BME280;10858;42.714;23.180;2023-03-23T07:09:08;94499.97;;;19.72;48.16
21395;BME280;10858;42.714;23.180;2023-03-23T07:11:35;94502.50;;;19.74;50.05
21395;BME280;10858;42.714;23.180;2023-03-23T07:14:01;94500.69;;;18.03;53.08
21395;BME280;10858;42.714;23.180;2023-03-23T07:16:28;94498.66;;;17.74;54.84
21395;BME280;10858;42.714;23.180;2023-03-23T07:18:54;94502.75;;;17.54;55.38
21395;BME280;10858;42.714;23.180;2023-03-23T07:21:20;94515.38;;;18.83;49.88
21395;BME280;10858;42.714;23.180;2023-03-23T07:23:47;94501.34;;;19.10;51.29
21395;BME280;10858;42.714;23.180;2023-03-23T07:26:13;94510.50;;;18.63;52.33
21395;BME280;10858;42.714;23.180;2023-03-23T07:28:39;94505.94;;;17.88;50.23
21395;BME280;10858;42.714;23.180;2023-03-23T07:31:06;94506.28;;;18.16;51.67
21395;BME280;10858;42.714;23.180;2023-03-23T07:33:35;94509.16;;;19.48;47.85
21395;BME280;10858;42.714;23.180;2023-03-23T07:36:01;94514.00;;;19.38;48.01
21395;BME280;10858;42.714;23.180;2023-03-23T07:38:29;94515.75;;;19.46;44.89
21395;BME280;10858;42.714;23.180;2023-03-23T07:40:56;94513.59;;;20.00;46.83
21395;BME280;10858;42.714;23.180;2023-03-23T07:43:22;94523.34;;;20.37;44.39
21395;BME280;10858;42.714;23.180;2023-03-23T07:45:48;94520.63;;;21.21;44.33
21395;BME280;10858;42.714;23.180;2023-03-23T07:48:15;94522.78;;;20.62;44.14
21395;BME280;10858;42.714;23.180;2023-03-23T07:50:41;94519.00;;;20.78;45.33
21395;BME280;10858;42.714;23.180;2023-03-23T07:53:10;94519.97;;;20.13;44.38
21395;BME280;10858;42.714;23.180;2023-03-23T07:55:37;94520.63;;;20.01;44.40
21395;BME280;10858;42.714;23.180;2023-03-23T07:58:03;94516.41;;;19.77;44.45
21395;BME280;10858;42.714;23.180;2023-03-23T08:00:29;94515.53;;;19.91;43.25
21395;BME280;10858;42.714;23.180;2023-03-23T08:02:57;94520.44;;;20.02;44.44
21395;BME280;10858;42.714;23.180;2023-03-23T08:05:24;94516.78;;;20.24;43.72
21395;BME280;10858;42.714;23.180;2023-03-23T08:07:52;94511.31;;;20.54;42.64
21395;BME280;10858;42.714;23.180;2023-03-23T08:10:21;94522.53;;;20.99;42.13
21395;BME280;10858;42.714;23.180;2023-03-23T08:12:52;94519.50;;;20.10;41.93
21395;BME280;10858;42.714;23.180;2023-03-23T08:15:19;94522.88;;;19.97;44.11
21395;BME280;10858;42.714;23.180;2023-03-23T08:17:47;94527.72;;;19.87;43.93
21395;BME280;10858;42.714;23.180;2023-03-23T08:20:14;94518.69;;;19.80;41.89
21395;BME280;10858;42.714;23.180;2023-03-23T08:22:43;94522.78;;;19.76;44.25
21395;BME280;10858;42.714;23.180;2023-03-23T08:25:12;94520.59;;;20.30;42.00
21395;BME280;10858;42.714;23.180;2023-03-23T08:27:40;94519.03;;;20.21;44.04
21395;BME280;10858;42.714;23.180;2023-03-23T08:30:15;94524.16;;;21.00;40.45
21395;BME280;10858;42.714;23.180;2023-03-23T08:32:42;94516.00;;;20.45;40.40
21395;BME280;10858;42.714;23.180;2023-03-23T08:35:10;94509.59;;;19.96;42.07
21395;BME280;10858;42.714;23.180;2023-03-23T08:37:36;94511.78;;;20.21;45.24
21395;BME280;10858;42.714;23.180;2023-03-23T08:40:04;94517.63;;;20.25;41.43
21395;BME280;10858;42.714;23.180;2023-03-23T08:42:36;94510.41;;;20.47;43.08
21395;BME280;10858;42.714;23.180;2023-03-23T08:45:07;94513.94;;;20.26;42.41
21395;BME280;10858;42.714;23.180;2023-03-23T08:47:34;94516.03;;;19.51;42.15
21395;BME280;10858;42.714;23.180;2023-03-23T08:50:02;94512.16;;;19.54;44.13
21395;BME280;10858;42.714;23.180;2023-03-23T08:52:29;94508.47;;;20.19;41.66
21395;BME280;10858;42.714;23.180;2023-03-23T08:54:56;94508.75;;;19.95;39.77
21395;BME280;10858;42.714;23.180;2023-03-23T08:57:26;94510.84;;;20.71;38.96
21395;BME280;10858;42.714;23.180;2023-03-23T08:59:52;94511.63;;;20.44;37.84
21395;BME280;10858;42.714;23.180;2023-03-23T09:02:26;94506.44;;;19.92;39.49
21395;BME280;10858;42.714;23.180;2023-03-23T09:04:56;94512.47;;;20.66;37.79
21395;BME280;10858;42.714;23.180;2023-03-23T09:07:22;94509.75;;;20.23;37.24
21395;BME280;10858;42.714;23.180;2023-03-23T09:09:49;94509.44;;;20.18;37.59
21395;BME280;10858;42.714;23.180;2023-03-23T09:12:15;94506.53;;;19.84;37.93
21395;BME280;10858;42.714;23.180;2023-03-23T09:14:42;94498.09;;;19.00;40.51
21395;BME280;10858;42.714;23.180;2023-03-23T09:17:08;94501.13;;;18.97;39.66
21395;BME280;10858;42.714;23.180;2023-03-23T09:19:35;94496.28;;;18.92;40.43
21395;BME280;10858;42.714;23.180;2023-03-23T09:22:02;94491.50;;;19.17;39.41
21395;BME280;10858;42.714;23.180;2023-03-23T09:24:29;94490.13;;;19.79;39.41
21395;BME280;10858;42.714;23.180;2023-03-23T09:26:56;94500.56;;;19.53;39.47
21395;BME280;10858;42.714;23.180;2023-03-23T09:29:25;94497.19;;;19.22;39.79
21395;BME280;10858;42.714;23.180;2023-03-23T09:31:51;94489.91;;;18.33;40.36
21395;BME280;10858;42.714;23.180;2023-03-23T09:34:18;94485.22;;;18.05;40.70
21395;BME280;10858;42.714;23.180;2023-03-23T09:36:44;94487.50;;;17.93;41.13
21395;BME280;10858;42.714;23.180;2023-03-23T09:39:11;94483.84;;;18.77;40.49
21395;BME280;10858;42.714;23.180;2023-03-23T09:42:07;94484.13;;;19.98;40.72
21395;BME280;10858;42.714;23.180;2023-03-23T09:55:14;94476.22;;;21.85;34.51
21395;BME280;10858;42.714;23.180;2023-03-23T09:57:58;94490.16;;;20.99;34.93
21395;BME280;10858;42.714;23.180;2023-03-23T10:00:33;94491.38;;;20.97;36.02
21395;BME280;10858;42.714;23.180;2023-03-23T10:03:07;94473.59;;;22.12;34.21
21395;BME280;10858;42.714;23.180;2023-03-23T10:05:48;94482.97;;;21.34;36.14
21395;BME280;10858;42.714;23.180;2023-03-23T10:08:18;94467.81;;;21.05;34.21
21395;BME280;10858;42.714;23.180;2023-03-23T10:11:10;94467.66;;;22.49;32.60
21395;BME280;10858;42.714;23.180;2023-03-23T10:16:26;94471.09;;;20.52;36.16
21395;BME280;10858;42.714;23.180;2023-03-23T10:19:10;94471.25;;;21.95;34.24
21395;BME280;10858;42.714;23.180;2023-03-23T10:21:41;94470.16;;;20.45;35.28
21395;BME280;10858;42.714;23.180;2023-03-23T10:24:15;94464.75;;;19.88;39.21
21395;BME280;10858;42.714;23.180;2023-03-23T10:27:10;94466.09;;;19.05;40.76
21395;BME280;10858;42.714;23.180;2023-03-23T10:29:57;94465.41;;;19.90;37.30
21395;BME280;10858;42.714;23.180;2023-03-23T10:35:48;94463.22;;;19.21;39.25
21395;BME280;10858;42.714;23.180;2023-03-23T10:38:39;94466.41;;;18.73;38.90
21395;BME280;10858;42.714;23.180;2023-03-23T10:41:18;94460.41;;;20.93;35.27
21395;BME280;10858;42.714;23.180;2023-03-23T10:43:45;94454.59;;;21.85;35.07
21395;BME280;10858;42.714;23.180;2023-03-23T10:46:51;94455.22;;;20.91;35.19
21395;BME280;10858;42.714;23.180;2023-03-23T10:49:36;94451.44;;;20.37;36.71
21395;BME280;10858;42.714;23.180;2023-03-23T10:54:38;94449.50;;;21.69;34.52
21395;BME280;10858;42.714;23.180;2023-03-23T10:57:22;94440.72;;;21.54;33.51
21395;BME280;10858;42.714;23.180;2023-03-23T10:59:50;94436.59;;;21.58;35.26
21395;BME280;10858;42.714;23.180;2023-03-23T11:02:21;94440.53;;;21.56;34.33
21395;BME280;10858;42.714;23.180;2023-03-23T11:05:23;94440.53;;;22.03;32.68
21395;BME280;10858;42.714;23.180;2023-03-23T11:08:00;94441.09;;;21.51;33.98
21395;BME280;10858;42.714;23.180;2023-03-23T11:10:40;94438.19;;;20.91;35.04
21395;BME280;10858;42.714;23.180;2023-03-23T11:13:14;94440.31;;;20.47;34.84
21395;BME280;10858;42.714;23.180;2023-03-23T11:15:43;94442.41;;;20.72;35.32
21395;BME280;10858;42.714;23.180;2023-03-23T11:18:12;94437.88;;;21.28;34.48
21395;BME280;10858;42.714;23.180;2023-03-23T11:20:45;94428.00;;;21.82;33.42
21395;BME280;10858;42.714;23.180;2023-03-23T11:23:37;94422.19;;;21.85;33.75
21395;BME280;10858;42.714;23.180;2023-03-23T11:26:16;94422.50;;;22.30;35.33
21395;BME280;10858;42.714;23.180;2023-03-23T11:28:46;94413.91;;;22.07;32.68
21395;BME280;10858;42.714;23.180;2023-03-23T11:31:16;94411.03;;;21.54;32.50
21395;BME280;10858;42.714;23.180;2023-03-23T11:33:57;94412.75;;;22.42;32.17
21395;BME280;10858;42.714;23.180;2023-03-23T11:36:35;94405.59;;;21.88;32.58
21395;BME280;10858;42.714;23.180;2023-03-23T11:39:18;94408.25;;;21.41;33.31
21395;BME280;10858;42.714;23.180;2023-03-23T11:41:45;94415.16;;;21.97;32.57
21395;BME280;10858;42.714;23.180;2023-03-23T11:44:11;94413.38;;;21.70;33.02
21395;BME280;10858;42.714;23.180;2023-03-23T11:46:53;94403.66;;;22.82;32.69
21395;BME280;10858;42.714;23.180;2023-03-23T11:49:41;94396.88;;;22.13;33.53
21395;BME280;10858;42.714;23.180;2023-03-23T11:52:32;94397.22;;;22.70;32.33
21395;BME280;10858;42.714;23.180;2023-03-23T11:58:10;94393.31;;;24.69;28.11
21395;BME280;10858;42.714;23.180;2023-03-23T12:00:48;94394.75;;;24.16;29.78
21395;BME280;10858;42.714;23.180;2023-03-23T12:03:33;94387.34;;;23.28;30.48
21395;BME280;10858;42.714;23.180;2023-03-23T12:06:08;94382.81;;;22.89;32.49
21395;BME280;10858;42.714;23.180;2023-03-23T12:14:22;94384.72;;;23.72;30.49
21395;BME280;10858;42.714;23.180;2023-03-23T12:19:37;94383.06;;;22.68;30.83
21395;BME280;10858;42.714;23.180;2023-03-23T12:22:30;94377.97;;;23.37;30.10
21395;BME280;10858;42.714;23.180;2023-03-23T12:27:47;94379.00;;;23.29;29.85
21395;BME280;10858;42.714;23.180;2023-03-23T12:41:29;94362.59;;;23.18;29.72
21395;BME280;10858;42.714;23.180;2023-03-23T12:44:09;94367.78;;;23.19;30.96
21395;BME280;10858;42.714;23.180;2023-03-23T12:52:06;94358.53;;;24.04;29.56
21395;BME280;10858;42.714;23.180;2023-03-23T12:54:59;94352.69;;;24.07;29.66
21395;BME280;10858;42.714;23.180;2023-03-23T13:00:20;94347.81;;;23.07;31.12
21395;BME280;10858;42.714;23.180;2023-03-23T13:03:05;94352.72;;;24.31;30.27
21395;BME280;10858;42.714;23.180;2023-03-23T13:05:41;94347.38;;;25.42;28.65
21395;BME280;10858;42.714;23.180;2023-03-23T13:08:32;94349.50;;;24.97;28.21
21395;BME280;10858;42.714;23.180;2023-03-23T13:11:04;94345.81;;;23.98;28.93
21395;BME280;10858;42.714;23.180;2023-03-23T13:13:52;94342.63;;;24.14;28.58
21395;BME280;10858;42.714;23.180;2023-03-23T13:20:33;94329.94;;;23.13;29.82
21395;BME280;10858;42.714;23.180;2023-03-23T13:28:03;94333.09;;;23.60;29.81
21395;BME280;10858;42.714;23.180;2023-03-23T13:30:30;94332.59;;;23.77;28.78
21395;BME280;10858;42.714;23.180;2023-03-23T13:33:05;94330.16;;;23.69;29.01
21395;BME280;10858;42.714;23.180;2023-03-23T13:35:37;94325.63;;;23.49;30.05
21395;BME280;10858;42.714;23.180;2023-03-23T13:38:17;94319.72;;;23.65;29.61
21395;BME280;10858;42.714;23.180;2023-03-23T13:40:45;94325.34;;;23.71;29.24
21395;BME280;10858;42.714;23.180;2023-03-23T13:43:12;94317.75;;;23.48;29.62
21395;BME280;10858;42.714;23.180;2023-03-23T13:45:47;94324.38;;;24.03;28.57
21395;BME280;10858;42.714;23.180;2023-03-23T13:53:35;94321.31;;;24.48;28.33
21395;BME280;10858;42.714;23.180;2023-03-23T13:56:35;94319.25;;;23.75;28.60
21395;BME280;10858;42.714;23.180;2023-03-23T13:59:07;94318.25;;;24.07;27.73
21395;BME280;10858;42.714;23.180;2023-03-23T14:01:36;94317.69;;;24.30;28.24
21395;BME280;10858;42.714;23.180;2023-03-23T14:04:06;94298.00;;;25.08;26.78
21395;BME280;10858;42.714;23.180;2023-03-23T14:06:36;94306.75;;;25.10;28.09
21395;BME280;10858;42.714;23.180;2023-03-23T14:11:58;94305.19;;;23.60;28.09
21395;BME280;10858;42.714;23.180;2023-03-23T14:14:32;94304.06;;;23.36;29.38
21395;BME280;10858;42.714;23.180;2023-03-23T14:19:40;94290.69;;;24.17;29.23
21395;BME280;10858;42.714;23.180;2023-03-23T14:22:24;94284.03;;;22.54;29.59
21395;BME280;10858;42.714;23.180;2023-03-23T14:25:00;94287.78;;;22.40;30.65
21395;BME280;10858;42.714;23.180;2023-03-23T14:27:27;94289.63;;;22.72;30.12
21395;BME280;10858;42.714;23.180;2023-03-23T14:30:02;94287.25;;;23.08;28.82
21395;BME280;10858;42.714;23.180;2023-03-23T14:32:31;94294.22;;;23.42;28.20
21395;BME280;10858;42.714;23.180;2023-03-23T14:35:00;94288.84;;;24.11;27.70
21395;BME280;10858;42.714;23.180;2023-03-23T14:37:27;94296.81;;;24.55;27.36
21395;BME280;10858;42.714;23.180;2023-03-23T14:39:55;94288.56;;;24.75;27.81
21395;BME280;10858;42.714;23.180;2023-03-23T14:42:41;94285.75;;;25.36;27.71
21395;BME280;10858;42.714;23.180;2023-03-23T14:45:12;94287.50;;;24.94;27.58
21395;BME280;10858;42.714;23.180;2023-03-23T14:48:02;94287.44;;;24.33;27.64
21395;BME280;10858;42.714;23.180;2023-03-23T14:50:36;94291.34;;;23.75;28.58
21395;BME280;10858;42.714;23.180;2023-03-23T14:56:10;94281.69;;;23.85;28.54
21395;BME280;10858;42.714;23.180;2023-03-23T14:58:37;94272.03;;;23.07;30.04